Mitchell Muni Information

FAA: MHE - ICAO: KMHE

Mitchell Muni (Airport) Location

State South Dakota
County Davison
City Mitchell
Mitchell Muni (Airport) is 3 miles north of Mitchell, SD.
Latitude 43-46-29.4000N
Longitude 098-02-19.0000W
Elevation 1,304ft

Mitchell Muni METARs

METAR KMHE 181353Z AUTO 24008KT 10SM SCT100 03/M03 A2957 RMK AO2 SLP025 T00281028
Altimeter 29.57"
Temperature 2.8°C (37.0°F)
Wind 240° at 8KT
Clouds scattered at 10,000ft
Visibility 10.0mi
Time observed: 2022-01-18T13:53:00Z

Mitchell Muni (Airport) Details

Status Operational
Activation November 1937
Ownership Public
Usage Public
Chart OMAHA
ATC on-site No
Beacon schedule sunset-sunrise
Beacon color clear green

Mitchell Muni (Airport) Contacts

Owner CITY OF MITCHELL
Owner address 612 N MAIN ST., MITCHELL, SD 57301
Owner phone 605-995-8420
Manager JOE DANGEL
Manager address 46563 276TH STREET, 46563 276TH STREET, SD 57039
Manager phone 605-647-5227

Mitchell Muni Radio Frequencies

Mitchell Muni (Airport) Radio Frequencies

UNICOM 122.8
Common traffic advisory frequency (CTAF) 122.8